sensor_id;sensor_type;location;lat;lon;timestamp;temperature;humidity
13589;DHT22;6865;52.552;13.434;2022-08-21T00:00:17;19.70;99.90
13589;DHT22;6865;52.552;13.434;2022-08-21T00:02:56;19.70;99.90
13589;DHT22;6865;52.552;13.434;2022-08-21T00:05:25;19.70;99.90
13589;DHT22;6865;52.552;13.434;2022-08-21T00:07:52;19.60;99.90
13589;DHT22;6865;52.552;13.434;2022-08-21T00:10:19;19.60;99.90
13589;DHT22;6865;52.552;13.434;2022-08-21T00:12:46;19.60;99.90
13589;DHT22;6865;52.552;13.434;2022-08-21T00:15:19;19.60;99.90
13589;DHT22;6865;52.552;13.434;2022-08-21T00:17:46;19.50;99.90
13589;DHT22;6865;52.552;13.434;2022-08-21T00:20:14;19.80;99.90
13589;DHT22;6865;52.552;13.434;2022-08-21T00:22:42;19.50;99.90
13589;DHT22;6865;52.552;13.434;2022-08-21T00:25:10;19.50;99.90
13589;DHT22;6865;52.552;13.434;2022-08-21T00:27:37;19.50;99.90
13589;DHT22;6865;52.552;13.434;2022-08-21T00:30:06;19.50;99.90
13589;DHT22;6865;52.552;13.434;2022-08-21T00:32:33;19.50;99.90
13589;DHT22;6865;52.552;13.434;2022-08-21T00:35:03;19.40;99.90
13589;DHT22;6865;52.552;13.434;2022-08-21T00:37:30;19.40;99.90
13589;DHT22;6865;52.552;13.434;2022-08-21T00:40:00;19.40;99.90
13589;DHT22;6865;52.552;13.434;2022-08-21T00:42:28;19.40;99.90
13589;DHT22;6865;52.552;13.434;2022-08-21T00:44:56;19.40;99.90
13589;DHT22;6865;52.552;13.434;2022-08-21T00:47:24;19.40;99.90
13589;DHT22;6865;52.552;13.434;2022-08-21T00:49:51;19.40;99.90
13589;DHT22;6865;52.552;13.434;2022-08-21T00:52:22;19.40;99.90
13589;DHT22;6865;52.552;13.434;2022-08-21T00:54:51;19.30;99.90
13589;DHT22;6865;52.552;13.434;2022-08-21T00:57:28;19.30;99.90
13589;DHT22;6865;52.552;13.434;2022-08-21T00:59:57;19.30;99.90
13589;DHT22;6865;52.552;13.434;2022-08-21T01:02:24;19.30;99.90
13589;DHT22;6865;52.552;13.434;2022-08-21T01:04:52;19.30;99.90
13589;DHT22;6865;52.552;13.434;2022-08-21T01:07:19;19.30;99.90
13589;DHT22;6865;52.552;13.434;2022-08-21T01:09:48;19.30;99.90
13589;DHT22;6865;52.552;13.434;2022-08-21T01:12:15;19.30;99.90
13589;DHT22;6865;52.552;13.434;2022-08-21T01:14:42;19.20;99.90
13589;DHT22;6865;52.552;13.434;2022-08-21T01:17:13;19.20;99.90
13589;DHT22;6865;52.552;13.434;2022-08-21T01:19:42;19.20;99.90
13589;DHT22;6865;52.552;13.434;2022-08-21T01:22:09;19.20;99.90
13589;DHT22;6865;52.552;13.434;2022-08-21T01:24:36;19.10;99.90
13589;DHT22;6865;52.552;13.434;2022-08-21T01:27:03;19.10;99.90
13589;DHT22;6865;52.552;13.434;2022-08-21T01:29:48;19.10;99.90
13589;DHT22;6865;52.552;13.434;2022-08-21T01:32:19;19.10;99.90
13589;DHT22;6865;52.552;13.434;2022-08-21T01:34:48;19.00;99.90
13589;DHT22;6865;52.552;13.434;2022-08-21T01:37:15;19.10;99.90
13589;DHT22;6865;52.552;13.434;2022-08-21T01:39:43;19.00;99.90
13589;DHT22;6865;52.552;13.434;2022-08-21T01:42:12;18.50;99.90
13589;DHT22;6865;52.552;13.434;2022-08-21T01:44:40;19.00;99.90
13589;DHT22;6865;52.552;13.434;2022-08-21T01:47:09;19.00;99.90
13589;DHT22;6865;52.552;13.434;2022-08-21T01:49:37;19.00;99.90
13589;DHT22;6865;52.552;13.434;2022-08-21T01:52:05;18.90;99.90
13589;DHT22;6865;52.552;13.434;2022-08-21T01:54:35;18.90;99.90
13589;DHT22;6865;52.552;13.434;2022-08-21T01:57:03;18.90;99.90
13589;DHT22;6865;52.552;13.434;2022-08-21T01:59:30;18.90;99.90
13589;DHT22;6865;52.552;13.434;2022-08-21T02:01:57;18.80;99.90
13589;DHT22;6865;52.552;13.434;2022-08-21T02:04:24;18.70;99.90
13589;DHT22;6865;52.552;13.434;2022-08-21T02:06:51;18.80;99.90
13589;DHT22;6865;52.552;13.434;2022-08-21T02:09:19;18.70;99.90
13589;DHT22;6865;52.552;13.434;2022-08-21T02:11:45;18.70;99.90
13589;DHT22;6865;52.552;13.434;2022-08-21T02:14:13;18.40;99.90
13589;DHT22;6865;52.552;13.434;2022-08-21T02:16:58;18.60;99.90
13589;DHT22;6865;52.552;13.434;2022-08-21T02:19:34;18.50;99.90
13589;DHT22;6865;52.552;13.434;2022-08-21T02:22:08;18.50;99.90
13589;DHT22;6865;52.552;13.434;2022-08-21T02:24:36;18.50;99.90
13589;DHT22;6865;52.552;13.434;2022-08-21T02:27:19;18.50;99.90
13589;DHT22;6865;52.552;13.434;2022-08-21T02:29:51;18.50;99.90
13589;DHT22;6865;52.552;13.434;2022-08-21T02:32:18;18.40;99.90
13589;DHT22;6865;52.552;13.434;2022-08-21T02:34:45;18.40;99.90
13589;DHT22;6865;52.552;13.434;2022-08-21T02:37:12;18.30;99.90
13589;DHT22;6865;52.552;13.434;2022-08-21T02:39:39;19.40;99.90
13589;DHT22;6865;52.552;13.434;2022-08-21T02:42:05;18.30;99.90
13589;DHT22;6865;52.552;13.434;2022-08-21T02:44:32;18.30;99.90
13589;DHT22;6865;52.552;13.434;2022-08-21T02:47:00;18.30;99.90
13589;DHT22;6865;52.552;13.434;2022-08-21T02:49:27;18.20;99.90
13589;DHT22;6865;52.552;13.434;2022-08-21T02:51:53;18.30;99.90
13589;DHT22;6865;52.552;13.434;2022-08-21T02:54:20;18.30;99.90
13589;DHT22;6865;52.552;13.434;2022-08-21T02:56:47;18.20;99.90
13589;DHT22;6865;52.552;13.434;2022-08-21T02:59:14;18.20;99.90
13589;DHT22;6865;52.552;13.434;2022-08-21T03:01:40;18.20;99.90
13589;DHT22;6865;52.552;13.434;2022-08-21T03:04:07;18.10;99.90
13589;DHT22;6865;52.552;13.434;2022-08-21T03:06:34;18.10;99.90
13589;DHT22;6865;52.552;13.434;2022-08-21T03:09:00;18.10;99.90
13589;DHT22;6865;52.552;13.434;2022-08-21T03:11:27;18.00;99.90
13589;DHT22;6865;52.552;13.434;2022-08-21T03:13:53;18.00;99.90
13589;DHT22;6865;52.552;13.434;2022-08-21T03:16:20;18.00;99.90
13589;DHT22;6865;52.552;13.434;2022-08-21T03:18:47;17.90;99.90
13589;DHT22;6865;52.552;13.434;2022-08-21T03:21:14;17.90;99.90
13589;DHT22;6865;52.552;13.434;2022-08-21T03:23:40;17.90;99.90
13589;DHT22;6865;52.552;13.434;2022-08-21T03:26:09;17.80;99.90
13589;DHT22;6865;52.552;13.434;2022-08-21T03:28:37;17.80;99.90
13589;DHT22;6865;52.552;13.434;2022-08-21T03:31:04;17.80;99.90
13589;DHT22;6865;52.552;13.434;2022-08-21T03:33:32;17.80;99.90
13589;DHT22;6865;52.552;13.434;2022-08-21T03:36:03;17.80;99.90
13589;DHT22;6865;52.552;13.434;2022-08-21T03:38:32;17.80;99.90
13589;DHT22;6865;52.552;13.434;2022-08-21T03:41:00;17.80;99.90
13589;DHT22;6865;52.552;13.434;2022-08-21T03:43:27;17.70;99.90
13589;DHT22;6865;52.552;13.434;2022-08-21T03:46:01;17.80;99.90
13589;DHT22;6865;52.552;13.434;2022-08-21T03:48:30;17.80;99.90
13589;DHT22;6865;52.552;13.434;2022-08-21T03:50:57;17.70;99.90
13589;DHT22;6865;52.552;13.434;2022-08-21T03:53:24;17.70;99.90
13589;DHT22;6865;52.552;13.434;2022-08-21T03:55:51;17.70;99.90
13589;DHT22;6865;52.552;13.434;2022-08-21T03:58:21;17.70;99.90
13589;DHT22;6865;52.552;13.434;2022-08-21T04:00:51;17.60;99.90
13589;DHT22;6865;52.552;13.434;2022-08-21T04:03:18;17.60;99.90
13589;DHT22;6865;52.552;13.434;2022-08-21T04:05:46;17.50;99.90
13589;DHT22;6865;52.552;13.434;2022-08-21T04:08:15;17.50;99.90
13589;DHT22;6865;52.552;13.434;2022-08-21T04:10:47;17.50;99.90
13589;DHT22;6865;52.552;13.434;2022-08-21T04:13:14;17.50;99.90
13589;DHT22;6865;52.552;13.434;2022-08-21T04:15:41;17.50;99.90
13589;DHT22;6865;52.552;13.434;2022-08-21T04:18:08;17.20;99.90
13589;DHT22;6865;52.552;13.434;2022-08-21T04:20:36;17.50;99.90
13589;DHT22;6865;52.552;13.434;2022-08-21T04:23:03;17.50;99.90
13589;DHT22;6865;52.552;13.434;2022-08-21T04:25:30;17.50;99.90
13589;DHT22;6865;52.552;13.434;2022-08-21T04:27:56;17.50;99.90
13589;DHT22;6865;52.552;13.434;2022-08-21T04:30:24;17.50;99.90
13589;DHT22;6865;52.552;13.434;2022-08-21T04:32:55;17.50;99.90
13589;DHT22;6865;52.552;13.434;2022-08-21T04:35:25;17.60;99.90
13589;DHT22;6865;52.552;13.434;2022-08-21T04:37:51;17.50;99.90
13589;DHT22;6865;52.552;13.434;2022-08-21T04:40:20;17.50;99.90
13589;DHT22;6865;52.552;13.434;2022-08-21T04:42:50;17.50;99.90
13589;DHT22;6865;52.552;13.434;2022-08-21T04:45:26;17.50;99.90
13589;DHT22;6865;52.552;13.434;2022-08-21T04:47:56;17.50;99.90
13589;DHT22;6865;52.552;13.434;2022-08-21T04:50:36;17.50;99.90
13589;DHT22;6865;52.552;13.434;2022-08-21T04:53:17;17.50;99.90
13589;DHT22;6865;52.552;13.434;2022-08-21T04:55:45;17.50;99.90
13589;DHT22;6865;52.552;13.434;2022-08-21T04:58:14;17.50;99.90
13589;DHT22;6865;52.552;13.434;2022-08-21T05:00:41;17.50;99.90
13589;DHT22;6865;52.552;13.434;2022-08-21T05:03:09;17.50;99.90
13589;DHT22;6865;52.552;13.434;2022-08-21T05:05:37;17.50;99.90
13589;DHT22;6865;52.552;13.434;2022-08-21T05:08:06;17.50;99.90
13589;DHT22;6865;52.552;13.434;2022-08-21T05:10:34;17.50;99.90
13589;DHT22;6865;52.552;13.434;2022-08-21T05:13:00;17.50;99.90
13589;DHT22;6865;52.552;13.434;2022-08-21T05:15:27;17.60;99.90
13589;DHT22;6865;52.552;13.434;2022-08-21T05:17:54;17.60;99.90
13589;DHT22;6865;52.552;13.434;2022-08-21T05:20:27;17.60;99.90
13589;DHT22;6865;52.552;13.434;2022-08-21T05:22:54;17.60;99.90
13589;DHT22;6865;52.552;13.434;2022-08-21T05:25:21;17.60;99.90
13589;DHT22;6865;52.552;13.434;2022-08-21T05:27:49;17.70;99.90
13589;DHT22;6865;52.552;13.434;2022-08-21T05:30:19;17.70;99.90
13589;DHT22;6865;52.552;13.434;2022-08-21T05:32:46;17.70;99.90
13589;DHT22;6865;52.552;13.434;2022-08-21T05:35:14;17.70;99.90
13589;DHT22;6865;52.552;13.434;2022-08-21T05:37:41;17.70;99.90
13589;DHT22;6865;52.552;13.434;2022-08-21T05:40:08;17.70;99.90
13589;DHT22;6865;52.552;13.434;2022-08-21T05:42:49;17.80;99.90
13589;DHT22;6865;52.552;13.434;2022-08-21T05:45:20;17.90;99.90
13589;DHT22;6865;52.552;13.434;2022-08-21T05:48:13;17.90;99.90
13589;DHT22;6865;52.552;13.434;2022-08-21T05:50:41;18.00;99.90
13589;DHT22;6865;52.552;13.434;2022-08-21T05:53:08;18.00;99.90
13589;DHT22;6865;52.552;13.434;2022-08-21T05:55:36;18.00;99.90
13589;DHT22;6865;52.552;13.434;2022-08-21T05:58:09;18.10;99.90
13589;DHT22;6865;52.552;13.434;2022-08-21T06:00:37;18.10;99.90
13589;DHT22;6865;52.552;13.434;2022-08-21T06:03:03;18.20;99.90
13589;DHT22;6865;52.552;13.434;2022-08-21T06:05:30;18.20;99.90
13589;DHT22;6865;52.552;13.434;2022-08-21T06:08:03;18.20;99.90
13589;DHT22;6865;52.552;13.434;2022-08-21T06:10:30;18.30;99.90
13589;DHT22;6865;52.552;13.434;2022-08-21T06:12:57;18.30;99.90
13589;DHT22;6865;52.552;13.434;2022-08-21T06:15:24;18.30;99.90
13589;DHT22;6865;52.552;13.434;2022-08-21T06:17:52;18.30;99.90
13589;DHT22;6865;52.552;13.434;2022-08-21T06:20:19;18.30;99.90
13589;DHT22;6865;52.552;13.434;2022-08-21T06:22:46;18.40;99.90
13589;DHT22;6865;52.552;13.434;2022-08-21T06:25:13;18.50;99.90
13589;DHT22;6865;52.552;13.434;2022-08-21T06:27:40;18.50;99.90
13589;DHT22;6865;52.552;13.434;2022-08-21T06:30:07;18.60;99.90
13589;DHT22;6865;52.552;13.434;2022-08-21T06:32:34;18.60;99.90
13589;DHT22;6865;52.552;13.434;2022-08-21T06:35:02;18.60;99.90
13589;DHT22;6865;52.552;13.434;2022-08-21T06:37:29;18.60;99.90
13589;DHT22;6865;52.552;13.434;2022-08-21T06:39:55;18.70;99.90
13589;DHT22;6865;52.552;13.434;2022-08-21T06:42:24;18.80;99.90
13589;DHT22;6865;52.552;13.434;2022-08-21T06:44:53;18.80;99.90
13589;DHT22;6865;52.552;13.434;2022-08-21T06:47:20;18.90;99.90
13589;DHT22;6865;52.552;13.434;2022-08-21T06:49:46;19.00;99.90
13589;DHT22;6865;52.552;13.434;2022-08-21T06:52:13;19.00;99.90
13589;DHT22;6865;52.552;13.434;2022-08-21T06:54:40;19.20;99.90
13589;DHT22;6865;52.552;13.434;2022-08-21T06:57:07;19.20;99.90
13589;DHT22;6865;52.552;13.434;2022-08-21T06:59:34;19.30;99.90
13589;DHT22;6865;52.552;13.434;2022-08-21T07:02:01;19.30;99.90
13589;DHT22;6865;52.552;13.434;2022-08-21T07:04:28;19.40;99.90
13589;DHT22;6865;52.552;13.434;2022-08-21T07:06:54;19.50;99.90
13589;DHT22;6865;52.552;13.434;2022-08-21T07:09:21;19.50;99.90
13589;DHT22;6865;52.552;13.434;2022-08-21T07:11:53;19.60;99.90
13589;DHT22;6865;52.552;13.434;2022-08-21T07:14:21;19.70;99.90
13589;DHT22;6865;52.552;13.434;2022-08-21T07:16:49;19.80;99.90
13589;DHT22;6865;52.552;13.434;2022-08-21T07:19:17;19.90;99.90
13589;DHT22;6865;52.552;13.434;2022-08-21T07:21:44;20.00;99.90
13589;DHT22;6865;52.552;13.434;2022-08-21T07:24:11;20.10;99.90
13589;DHT22;6865;52.552;13.434;2022-08-21T07:26:38;20.20;99.90
13589;DHT22;6865;52.552;13.434;2022-08-21T07:29:05;20.30;99.90
13589;DHT22;6865;52.552;13.434;2022-08-21T07:31:32;20.50;99.90
13589;DHT22;6865;52.552;13.434;2022-08-21T07:33:59;20.60;99.90
13589;DHT22;6865;52.552;13.434;2022-08-21T07:36:25;20.80;99.90
13589;DHT22;6865;52.552;13.434;2022-08-21T07:38:52;20.90;99.90
13589;DHT22;6865;52.552;13.434;2022-08-21T07:41:22;21.00;99.90
13589;DHT22;6865;52.552;13.434;2022-08-21T07:43:49;21.00;99.90
13589;DHT22;6865;52.552;13.434;2022-08-21T07:46:18;20.90;99.90
13589;DHT22;6865;52.552;13.434;2022-08-21T07:48:45;20.80;99.90
13589;DHT22;6865;52.552;13.434;2022-08-21T07:51:14;20.60;99.90
13589;DHT22;6865;52.552;13.434;2022-08-21T07:53:41;20.50;99.90
13589;DHT22;6865;52.552;13.434;2022-08-21T07:56:08;20.50;99.90
13589;DHT22;6865;52.552;13.434;2022-08-21T07:58:37;20.60;99.90
13589;DHT22;6865;52.552;13.434;2022-08-21T08:01:05;20.60;99.90
13589;DHT22;6865;52.552;13.434;2022-08-21T08:03:33;20.60;99.90
13589;DHT22;6865;52.552;13.434;2022-08-21T08:06:00;20.70;99.90
13589;DHT22;6865;52.552;13.434;2022-08-21T08:08:27;20.70;99.90
13589;DHT22;6865;52.552;13.434;2022-08-21T08:10:56;20.80;99.90
13589;DHT22;6865;52.552;13.434;2022-08-21T08:13:24;20.90;99.90
13589;DHT22;6865;52.552;13.434;2022-08-21T08:15:51;20.80;99.90
13589;DHT22;6865;52.552;13.434;2022-08-21T08:18:17;20.90;99.90
13589;DHT22;6865;52.552;13.434;2022-08-21T08:20:44;21.40;99.90
13589;DHT22;6865;52.552;13.434;2022-08-21T08:23:12;21.10;99.90
13589;DHT22;6865;52.552;13.434;2022-08-21T08:25:40;21.10;99.90
13589;DHT22;6865;52.552;13.434;2022-08-21T08:28:07;21.20;99.90
13589;DHT22;6865;52.552;13.434;2022-08-21T08:30:45;21.30;99.90
13589;DHT22;6865;52.552;13.434;2022-08-21T08:33:12;21.40;99.90
13589;DHT22;6865;52.552;13.434;2022-08-21T08:35:46;21.50;99.90
13589;DHT22;6865;52.552;13.434;2022-08-21T08:38:14;21.60;99.90
13589;DHT22;6865;52.552;13.434;2022-08-21T08:44:01;21.70;99.90
13589;DHT22;6865;52.552;13.434;2022-08-21T08:46:38;21.80;99.90
13589;DHT22;6865;52.552;13.434;2022-08-21T08:49:15;21.90;99.90
13589;DHT22;6865;52.552;13.434;2022-08-21T08:51:55;21.90;99.90
13589;DHT22;6865;52.552;13.434;2022-08-21T08:54:39;21.70;99.90
13589;DHT22;6865;52.552;13.434;2022-08-21T08:57:14;21.90;99.90
13589;DHT22;6865;52.552;13.434;2022-08-21T08:59:44;21.80;99.90
13589;DHT22;6865;52.552;13.434;2022-08-21T09:02:15;21.80;99.90
13589;DHT22;6865;52.552;13.434;2022-08-21T09:04:44;21.80;99.90
13589;DHT22;6865;52.552;13.434;2022-08-21T09:07:37;21.70;99.30
13589;DHT22;6865;52.552;13.434;2022-08-21T09:12:44;21.70;99.00
13589;DHT22;6865;52.552;13.434;2022-08-21T09:20:56;21.80;97.70
13589;DHT22;6865;52.552;13.434;2022-08-21T09:23:44;21.90;97.70
13589;DHT22;6865;52.552;13.434;2022-08-21T09:26:16;22.00;97.00
13589;DHT22;6865;52.552;13.434;2022-08-21T09:28:44;22.00;96.80
13589;DHT22;6865;52.552;13.434;2022-08-21T09:31:21;22.10;96.70
13589;DHT22;6865;52.552;13.434;2022-08-21T09:33:48;22.10;96.90
13589;DHT22;6865;52.552;13.434;2022-08-21T09:36:37;22.20;97.60
13589;DHT22;6865;52.552;13.434;2022-08-21T09:39:04;22.20;96.80
13589;DHT22;6865;52.552;13.434;2022-08-21T09:41:33;22.20;96.80
13589;DHT22;6865;52.552;13.434;2022-08-21T09:44:03;22.10;96.70
13589;DHT22;6865;52.552;13.434;2022-08-21T09:46:30;22.10;97.10
13589;DHT22;6865;52.552;13.434;2022-08-21T09:48:59;22.10;97.40
13589;DHT22;6865;52.552;13.434;2022-08-21T09:51:36;21.30;97.70
13589;DHT22;6865;52.552;13.434;2022-08-21T09:56:39;22.40;95.90
13589;DHT22;6865;52.552;13.434;2022-08-21T09:59:33;22.30;95.70
13589;DHT22;6865;52.552;13.434;2022-08-21T10:02:26;22.60;96.10
13589;DHT22;6865;52.552;13.434;2022-08-21T10:05:49;22.60;96.50
13589;DHT22;6865;52.552;13.434;2022-08-21T10:07:49;22.60;95.50
13589;DHT22;6865;52.552;13.434;2022-08-21T10:10:26;22.60;95.20
13589;DHT22;6865;52.552;13.434;2022-08-21T10:13:06;22.90;95.60
13589;DHT22;6865;52.552;13.434;2022-08-21T10:15:59;23.00;94.40
13589;DHT22;6865;52.552;13.434;2022-08-21T10:21:25;23.20;94.30
13589;DHT22;6865;52.552;13.434;2022-08-21T10:24:16;23.30;93.30
13589;DHT22;6865;52.552;13.434;2022-08-21T10:29:47;23.40;93.40
13589;DHT22;6865;52.552;13.434;2022-08-21T10:32:50;23.40;92.40
13589;DHT22;6865;52.552;13.434;2022-08-21T10:35:24;23.50;92.00
13589;DHT22;6865;52.552;13.434;2022-08-21T10:38:35;23.50;91.20
13589;DHT22;6865;52.552;13.434;2022-08-21T10:47:47;23.70;91.20
13589;DHT22;6865;52.552;13.434;2022-08-21T10:50:42;23.80;89.50
13589;DHT22;6865;52.552;13.434;2022-08-21T10:53:34;23.80;89.90
13589;DHT22;6865;52.552;13.434;2022-08-21T10:56:19;23.60;89.10
13589;DHT22;6865;52.552;13.434;2022-08-21T10:59:07;23.50;88.30
13589;DHT22;6865;52.552;13.434;2022-08-21T11:01:46;23.50;85.60
13589;DHT22;6865;52.552;13.434;2022-08-21T11:04:33;23.50;84.90
13589;DHT22;6865;52.552;13.434;2022-08-21T11:07:43;23.60;85.50
13589;DHT22;6865;52.552;13.434;2022-08-21T11:10:26;23.60;85.30
13589;DHT22;6865;52.552;13.434;2022-08-21T11:13:37;23.70;83.70
13589;DHT22;6865;52.552;13.434;2022-08-21T11:16:14;23.90;83.10
13589;DHT22;6865;52.552;13.434;2022-08-21T11:18:52;24.00;83.00
13589;DHT22;6865;52.552;13.434;2022-08-21T11:21:36;24.10;81.90
13589;DHT22;6865;52.552;13.434;2022-08-21T11:24:15;24.20;83.70
13589;DHT22;6865;52.552;13.434;2022-08-21T11:26:50;24.20;81.50
13589;DHT22;6865;52.552;13.434;2022-08-21T11:29:21;24.30;77.90
13589;DHT22;6865;52.552;13.434;2022-08-21T11:35:02;24.50;78.10
13589;DHT22;6865;52.552;13.434;2022-08-21T11:37:49;24.60;73.60
13589;DHT22;6865;52.552;13.434;2022-08-21T11:43:30;24.80;67.50
13589;DHT22;6865;52.552;13.434;2022-08-21T11:46:47;24.80;68.30
13589;DHT22;6865;52.552;13.434;2022-08-21T11:54:52;24.90;67.20
13589;DHT22;6865;52.552;13.434;2022-08-21T11:57:36;24.90;67.30
13589;DHT22;6865;52.552;13.434;2022-08-21T12:00:22;23.00;66.00
13589;DHT22;6865;52.552;13.434;2022-08-21T12:02:55;25.00;68.90
13589;DHT22;6865;52.552;13.434;2022-08-21T12:05:30;25.10;62.90
13589;DHT22;6865;52.552;13.434;2022-08-21T12:10:41;24.90;60.60
13589;DHT22;6865;52.552;13.434;2022-08-21T12:13:30;24.70;61.20
13589;DHT22;6865;52.552;13.434;2022-08-21T12:16:14;23.50;59.40
13589;DHT22;6865;52.552;13.434;2022-08-21T12:18:42;24.40;62.00
13589;DHT22;6865;52.552;13.434;2022-08-21T12:21:26;24.50;62.10
13589;DHT22;6865;52.552;13.434;2022-08-21T12:26:54;24.60;64.00
13589;DHT22;6865;52.552;13.434;2022-08-21T12:29:32;24.70;63.10
13589;DHT22;6865;52.552;13.434;2022-08-21T12:32:57;24.70;63.60
13589;DHT22;6865;52.552;13.434;2022-08-21T12:35:19;24.70;65.90
13589;DHT22;6865;52.552;13.434;2022-08-21T12:38:15;24.80;64.70
13589;DHT22;6865;52.552;13.434;2022-08-21T12:40:53;24.90;63.40
13589;DHT22;6865;52.552;13.434;2022-08-21T12:43:37;24.90;61.50
13589;DHT22;6865;52.552;13.434;2022-08-21T12:46:05;25.00;62.80
13589;DHT22;6865;52.552;13.434;2022-08-21T12:48:43;25.00;59.80
13589;DHT22;6865;52.552;13.434;2022-08-21T12:51:14;25.10;58.90
13589;DHT22;6865;52.552;13.434;2022-08-21T12:53:48;25.10;62.40
13589;DHT22;6865;52.552;13.434;2022-08-21T12:56:20;25.10;61.70
13589;DHT22;6865;52.552;13.434;2022-08-21T12:58:50;25.20;60.50
13589;DHT22;6865;52.552;13.434;2022-08-21T13:01:33;25.30;61.40
13589;DHT22;6865;52.552;13.434;2022-08-21T13:04:10;25.40;60.90
13589;DHT22;6865;52.552;13.434;2022-08-21T13:06:43;25.40;61.60
13589;DHT22;6865;52.552;13.434;2022-08-21T13:09:13;25.30;61.60
13589;DHT22;6865;52.552;13.434;2022-08-21T13:11:43;25.30;62.00
13589;DHT22;6865;52.552;13.434;2022-08-21T13:14:36;25.20;62.70
13589;DHT22;6865;52.552;13.434;2022-08-21T13:17:11;25.10;61.10
13589;DHT22;6865;52.552;13.434;2022-08-21T13:19:38;24.90;62.20
13589;DHT22;6865;52.552;13.434;2022-08-21T13:22:12;24.80;62.90
13589;DHT22;6865;52.552;13.434;2022-08-21T13:24:59;24.70;63.00
13589;DHT22;6865;52.552;13.434;2022-08-21T13:27:32;24.70;65.40
13589;DHT22;6865;52.552;13.434;2022-08-21T13:30:03;24.50;67.90
13589;DHT22;6865;52.552;13.434;2022-08-21T13:32:31;24.70;66.00
13589;DHT22;6865;52.552;13.434;2022-08-21T13:35:06;24.90;64.80
13589;DHT22;6865;52.552;13.434;2022-08-21T13:37:35;25.00;65.30
13589;DHT22;6865;52.552;13.434;2022-08-21T13:40:02;25.10;64.00
13589;DHT22;6865;52.552;13.434;2022-08-21T13:42:29;25.10;65.00
13589;DHT22;6865;52.552;13.434;2022-08-21T13:44:56;25.00;64.50
13589;DHT22;6865;52.552;13.434;2022-08-21T13:47:22;25.10;64.60
13589;DHT22;6865;52.552;13.434;2022-08-21T13:49:51;25.10;62.40
13589;DHT22;6865;52.552;13.434;2022-08-21T13:52:26;25.20;63.60
13589;DHT22;6865;52.552;13.434;2022-08-21T13:55:33;24.60;65.40
13589;DHT22;6865;52.552;13.434;2022-08-21T13:57:45;24.90;67.00
13589;DHT22;6865;52.552;13.434;2022-08-21T14:00:16;24.90;66.90
13589;DHT22;6865;52.552;13.434;2022-08-21T14:02:46;24.90;63.40
13589;DHT22;6865;52.552;13.434;2022-08-21T14:05:22;25.30;63.70
13589;DHT22;6865;52.552;13.434;2022-08-21T14:08:00;25.10;65.20
13589;DHT22;6865;52.552;13.434;2022-08-21T14:10:28;25.10;64.80
13589;DHT22;6865;52.552;13.434;2022-08-21T14:13:03;25.20;67.50
13589;DHT22;6865;52.552;13.434;2022-08-21T14:15:31;25.30;67.20
13589;DHT22;6865;52.552;13.434;2022-08-21T14:18:28;25.30;68.20
13589;DHT22;6865;52.552;13.434;2022-08-21T14:21:06;25.50;67.90
13589;DHT22;6865;52.552;13.434;2022-08-21T14:23:33;25.50;66.90
13589;DHT22;6865;52.552;13.434;2022-08-21T14:26:03;25.60;67.20
13589;DHT22;6865;52.552;13.434;2022-08-21T14:28:34;25.50;66.20
13589;DHT22;6865;52.552;13.434;2022-08-21T14:31:21;25.50;67.00
13589;DHT22;6865;52.552;13.434;2022-08-21T14:33:48;25.40;67.90
13589;DHT22;6865;52.552;13.434;2022-08-21T14:36:15;25.50;66.40
13589;DHT22;6865;52.552;13.434;2022-08-21T14:38:41;25.40;66.60
13589;DHT22;6865;52.552;13.434;2022-08-21T14:41:15;25.20;66.80
13589;DHT22;6865;52.552;13.434;2022-08-21T14:43:43;25.10;67.80
13589;DHT22;6865;52.552;13.434;2022-08-21T14:46:12;25.10;67.60
13589;DHT22;6865;52.552;13.434;2022-08-21T14:48:39;24.90;67.80
13589;DHT22;6865;52.552;13.434;2022-08-21T14:51:05;24.70;68.10
13589;DHT22;6865;52.552;13.434;2022-08-21T14:53:32;24.60;68.30
13589;DHT22;6865;52.552;13.434;2022-08-21T14:55:59;24.50;69.40
13589;DHT22;6865;52.552;13.434;2022-08-21T14:58:36;24.30;70.10
13589;DHT22;6865;52.552;13.434;2022-08-21T15:01:05;24.30;70.20
13589;DHT22;6865;52.552;13.434;2022-08-21T15:03:32;24.20;70.40
13589;DHT22;6865;52.552;13.434;2022-08-21T15:06:00;24.10;70.60
13589;DHT22;6865;52.552;13.434;2022-08-21T15:08:26;24.00;70.20
13589;DHT22;6865;52.552;13.434;2022-08-21T15:10:53;23.90;70.60
13589;DHT22;6865;52.552;13.434;2022-08-21T15:13:38;23.90;71.50
13589;DHT22;6865;52.552;13.434;2022-08-21T15:16:05;23.70;71.70
13589;DHT22;6865;52.552;13.434;2022-08-21T15:18:32;23.70;72.40
13589;DHT22;6865;52.552;13.434;2022-08-21T15:20:58;23.70;72.60
13589;DHT22;6865;52.552;13.434;2022-08-21T15:23:25;23.70;73.30
13589;DHT22;6865;52.552;13.434;2022-08-21T15:25:52;23.70;73.50
13589;DHT22;6865;52.552;13.434;2022-08-21T15:28:20;23.70;73.80
13589;DHT22;6865;52.552;13.434;2022-08-21T15:30:48;23.70;74.20
13589;DHT22;6865;52.552;13.434;2022-08-21T15:33:15;22.10;74.50
13589;DHT22;6865;52.552;13.434;2022-08-21T15:35:43;23.60;74.80
13589;DHT22;6865;52.552;13.434;2022-08-21T15:38:10;23.30;75.30
13589;DHT22;6865;52.552;13.434;2022-08-21T15:40:37;23.50;76.20
13589;DHT22;6865;52.552;13.434;2022-08-21T15:43:05;23.50;76.10
13589;DHT22;6865;52.552;13.434;2022-08-21T15:45:32;23.50;74.50
13589;DHT22;6865;52.552;13.434;2022-08-21T15:47:59;23.60;74.30
13589;DHT22;6865;52.552;13.434;2022-08-21T15:50:28;23.60;74.30
13589;DHT22;6865;52.552;13.434;2022-08-21T15:52:55;23.70;74.60
13589;DHT22;6865;52.552;13.434;2022-08-21T15:55:22;23.70;74.00
13589;DHT22;6865;52.552;13.434;2022-08-21T15:57:51;23.70;74.80
13589;DHT22;6865;52.552;13.434;2022-08-21T16:00:24;23.90;74.50
13589;DHT22;6865;52.552;13.434;2022-08-21T16:02:54;23.70;74.00
13589;DHT22;6865;52.552;13.434;2022-08-21T16:05:22;23.60;73.60
13589;DHT22;6865;52.552;13.434;2022-08-21T16:07:49;23.50;73.30
13589;DHT22;6865;52.552;13.434;2022-08-21T16:10:19;23.40;73.60
13589;DHT22;6865;52.552;13.434;2022-08-21T16:12:54;23.30;74.30
13589;DHT22;6865;52.552;13.434;2022-08-21T16:15:22;23.30;74.10
13589;DHT22;6865;52.552;13.434;2022-08-21T16:17:49;23.20;74.00
13589;DHT22;6865;52.552;13.434;2022-08-21T16:20:27;23.20;74.30
13589;DHT22;6865;52.552;13.434;2022-08-21T16:22:55;23.20;74.00
13589;DHT22;6865;52.552;13.434;2022-08-21T16:25:22;23.20;74.60
13589;DHT22;6865;52.552;13.434;2022-08-21T16:27:52;23.20;74.40
13589;DHT22;6865;52.552;13.434;2022-08-21T16:30:25;23.10;74.60
13589;DHT22;6865;52.552;13.434;2022-08-21T16:32:52;23.10;74.80
13589;DHT22;6865;52.552;13.434;2022-08-21T16:35:20;23.10;74.80
13589;DHT22;6865;52.552;13.434;2022-08-21T16:37:47;23.10;75.90
13589;DHT22;6865;52.552;13.434;2022-08-21T16:40:18;23.10;75.10